Time;durP1;ratioP1;P1;durP2;ratioP2;P2;SDS_P1;SDS_P2;PMS_P1;PMS_P2;Temp;Humidity;BMP_temperature;BMP_pressure;BME280_temperature;BME280_humidity;BME280_pressure;Samples;Min_cycle;Max_cycle;Signal;HPM_P1;HPM_P2
2023/03/16 00:00:57;;;;;;;2.90;1.73;;;;;;;12.65;42.92;100195.25;5073702;28;20071;-64
2023/03/16 00:03:29;;;;;;;3.97;1.70;;;;;;;12.64;43.10;100192.66;5073692;28;20048;-65
2023/03/16 00:05:59;;;;;;;3.17;1.67;;;;;;;12.63;42.98;100190.97;5073629;28;20064;-66
2023/03/16 00:08:27;;;;;;;3.60;1.70;;;;;;;12.60;42.98;100187.53;5073422;28;20055;-64
2023/03/16 00:10:55;;;;;;;2.92;1.70;;;;;;;12.62;42.95;100200.81;5073501;28;20045;-64
2023/03/16 00:13:24;;;;;;;3.50;1.67;;;;;;;12.60;43.16;100197.38;5073478;28;20382;-64
2023/03/16 00:15:55;;;;;;;3.63;1.70;;;;;;;12.60;42.88;100208.94;5073467;28;20121;-64
2023/03/16 00:18:26;;;;;;;3.50;1.85;;;;;;;12.60;42.75;100208.94;5073229;28;20044;-65
2023/03/16 00:20:57;;;;;;;2.58;1.33;;;;;;;12.58;42.85;100210.88;5073201;28;20197;-65
2023/03/16 00:23:27;;;;;;;2.90;1.60;;;;;;;12.56;42.84;100207.47;5073511;28;20045;-65
2023/03/16 00:25:55;;;;;;;3.28;1.58;;;;;;;12.58;43.13;100213.56;5073258;28;20052;-66
2023/03/16 00:28:23;;;;;;;3.28;1.50;;;;;;;12.56;43.08;100214.63;5073120;28;20041;-65
2023/03/16 00:30:51;;;;;;;2.80;1.45;;;;;;;12.57;42.94;100225.22;5072964;28;20124;-66
2023/03/16 00:33:20;;;;;;;3.65;1.70;;;;;;;12.57;43.14;100219.88;5072978;28;20048;-66
2023/03/16 00:35:49;;;;;;;3.13;1.50;;;;;;;12.56;42.98;100218.16;5073197;28;20123;-67
2023/03/16 00:38:18;;;;;;;4.07;1.60;;;;;;;12.57;43.05;100213.66;5073110;28;20044;-65
2023/03/16 00:40:50;;;;;;;3.72;1.60;;;;;;;12.55;42.78;100219.13;5072683;28;20064;-65
2023/03/16 00:43:18;;;;;;;3.15;1.75;;;;;;;12.55;42.76;100229.81;5072973;28;20132;-65
2023/03/16 00:45:46;;;;;;;3.63;1.50;;;;;;;12.54;42.72;100230.75;5072670;28;20402;-66
2023/03/16 00:48:15;;;;;;;2.70;1.52;;;;;;;12.54;42.92;100229.91;5072661;28;20049;-65
2023/03/16 00:50:43;;;;;;;2.35;1.45;;;;;;;12.51;42.72;100228.31;5072707;28;20049;-64
2023/03/16 00:53:11;;;;;;;3.13;1.80;;;;;;;12.49;42.97;100232.91;5072587;28;20071;-65
2023/03/16 00:55:40;;;;;;;3.72;2.00;;;;;;;12.50;42.96;100234.63;5072568;28;20048;-64
2023/03/16 00:58:13;;;;;;;3.63;1.70;;;;;;;12.48;42.78;100236.56;5072773;28;20051;-65
2023/03/16 01:00:41;;;;;;;;;;;;;;;12.50;42.91;100234.63;5073284;28;20393;-65
2023/03/16 01:03:10;;;;;;;3.72;1.60;;;;;;;12.47;42.70;100237.53;5072475;28;19974;-65
2023/03/16 01:05:40;;;;;;;3.97;1.80;;;;;;;12.47;42.79;100237.53;5072416;28;20476;-64
2023/03/16 01:08:09;;;;;;;4.40;1.75;;;;;;;12.47;42.83;100231.31;5072442;28;20036;-64
2023/03/16 01:10:39;;;;;;;3.42;1.70;;;;;;;12.47;42.54;100239.34;5072335;28;20044;-66
2023/03/16 01:13:07;;;;;;;4.15;1.80;;;;;;;12.45;42.86;100230.53;5072312;28;20054;-65
2023/03/16 01:15:36;;;;;;;3.83;1.67;;;;;;;12.45;42.72;100236.78;5072383;28;20115;-65
2023/03/16 01:18:05;;;;;;;4.05;1.60;;;;;;;12.44;42.61;100239.53;5072314;28;20044;-65
2023/03/16 01:20:33;;;;;;;3.00;1.85;;;;;;;12.41;42.70;100237.94;5072143;28;20048;-65
2023/03/16 01:23:02;;;;;;;2.40;1.33;;;;;;;12.41;42.72;100234.41;5072109;28;20481;-65
2023/03/16 01:25:31;;;;;;;3.47;1.63;;;;;;;12.41;42.81;100235.25;5072009;28;20151;-65
2023/03/16 01:28:00;;;;;;;3.65;1.52;;;;;;;12.40;42.83;100238.88;5072054;28;20045;-65
2023/03/16 01:30:29;;;;;;;3.15;1.45;;;;;;;12.38;42.57;100230.13;5071375;28;20053;-65
2023/03/16 01:32:58;;;;;;;3.30;1.70;;;;;;;12.40;42.40;100236.22;5071985;28;20040;-65
2023/03/16 01:35:27;;;;;;;4.20;1.85;;;;;;;12.36;42.64;100226.69;5071926;28;20082;-65
2023/03/16 01:37:55;;;;;;;3.75;1.75;;;;;;;12.37;42.37;100236.44;5071977;28;20509;-65
2023/03/16 01:40:23;;;;;;;3.42;1.50;;;;;;;12.37;42.50;100232.91;5071695;28;20063;-65
2023/03/16 01:43:01;;;;;;;3.53;1.63;;;;;;;12.36;42.68;100234.72;5071897;28;20098;-65
2023/03/16 01:46:16;;;;;;;3.58;1.58;;;;;;;12.37;42.65;100240.94;5071932;28;20110;-65
2023/03/16 01:48:51;;;;;;;2.72;1.50;;;;;;;12.34;42.58;100244.63;5071584;28;20048;-64
2023/03/16 01:51:24;;;;;;;3.80;1.58;;;;;;;12.34;42.62;100244.63;5071922;28;20079;-66
2023/03/16 01:53:57;;;;;;;3.07;1.70;;;;;;;12.32;42.67;100247.41;5071823;28;20049;-65
2023/03/16 01:56:29;;;;;;;3.08;1.50;;;;;;;12.32;42.44;100251.91;5071859;28;20405;-65
2023/03/16 01:59:00;;;;;;;2.78;1.30;;;;;;;12.31;42.71;100260.91;5076186;28;20055;-65
2023/03/16 02:01:29;;;;;;;3.50;1.70;;;;;;;12.27;42.60;100262.94;5079320;28;20123;-66
2023/03/16 02:04:06;;;;;;;3.35;1.80;;;;;;;12.26;42.65;100263.06;5076380;28;20465;-66
2023/03/16 02:06:36;;;;;;;2.88;1.60;;;;;;;12.26;42.57;100269.25;5071716;28;20539;-66
2023/03/16 02:09:05;;;;;;;3.80;1.70;;;;;;;12.28;42.57;100277.16;5071629;28;20110;-66
2023/03/16 02:11:35;;;;;;;3.78;1.92;;;;;;;12.27;42.59;100275.47;5071519;28;20045;-65
2023/03/16 02:14:08;;;;;;;3.58;1.80;;;;;;;12.25;42.52;100277.34;5071799;28;20063;-65
2023/03/16 02:16:41;;;;;;;4.20;1.80;;;;;;;12.23;42.27;100279.28;5071611;28;20105;-66
2023/03/16 02:19:16;;;;;;;3.35;1.65;;;;;;;12.24;42.36;100289.00;5071678;28;20090;-64
2023/03/16 02:21:53;;;;;;;4.10;1.70;;;;;;;12.25;42.18;100293.41;5071457;28;20123;-64
2023/03/16 02:24:22;;;;;;;3.22;1.80;;;;;;;12.22;42.55;100294.47;5071394;28;20044;-66
2023/03/16 02:26:55;;;;;;;2.33;1.48;;;;;;;12.20;42.51;100292.88;5071585;28;20057;-66
2023/03/16 02:29:56;;;;;;;3.72;1.55;;;;;;;12.21;42.65;100307.94;5071322;28;20126;-65
2023/03/16 02:32:27;;;;;;;2.97;1.50;;;;;;;12.13;42.70;100294.22;5071308;28;20068;-66
2023/03/16 02:34:57;;;;;;;3.30;1.45;;;;;;;12.18;42.55;100305.47;5071264;28;20516;-65
2023/03/16 02:37:26;;;;;;;3.13;1.60;;;;;;;12.16;42.48;100304.69;5071638;28;20413;-65
2023/03/16 02:39:54;;;;;;;2.38;1.38;;;;;;;12.17;42.69;100309.13;5071095;28;20087;-64
2023/03/16 02:42:25;;;;;;;3.50;1.70;;;;;;;12.16;42.67;100315.41;5072392;28;20387;-65
2023/03/16 02:44:57;;;;;;;4.38;2.00;;;;;;;12.15;42.64;100313.69;5075121;28;20066;-66
2023/03/16 02:47:33;;;;;;;4.43;1.65;;;;;;;12.12;42.42;100317.41;5075356;28;20052;-65
2023/03/16 02:50:05;;;;;;;3.75;1.70;;;;;;;12.11;42.54;100314.84;5074779;28;20045;-66
2023/03/16 02:52:34;;;;;;;2.40;1.30;;;;;;;12.12;42.58;100324.59;5074958;28;20444;-66
2023/03/16 02:55:02;;;;;;;3.45;1.70;;;;;;;12.10;42.48;100331.84;5074802;28;20044;-64
2023/03/16 02:57:31;;;;;;;2.78;1.40;;;;;;;12.11;42.44;100330.91;5074899;28;20048;-65
2023/03/16 03:00:01;;;;;;;3.13;1.45;;;;;;;12.10;42.48;100329.19;5074999;28;20397;-66
2023/03/16 03:02:30;;;;;;;4.93;1.83;;;;;;;12.08;42.56;100331.09;5075148;28;20040;-66
2023/03/16 03:04:59;;;;;;;4.85;1.73;;;;;;;12.09;42.21;100336.34;5075013;28;20063;-64
2023/03/16 03:07:30;;;;;;;2.53;1.35;;;;;;;12.09;42.38;100341.69;5074838;28;20052;-65
2023/03/16 03:09:58;;;;;;;3.63;1.73;;;;;;;12.08;42.61;100345.34;5074594;28;20076;-64
2023/03/16 03:12:29;;;;;;;4.55;1.70;;;;;;;12.06;42.55;100354.38;5074716;28;20107;-64
2023/03/16 03:14:57;;;;;;;3.25;1.70;;;;;;;12.07;42.62;100353.47;5074548;28;20049;-64
2023/03/16 03:17:28;;;;;;;2.15;1.45;;;;;;;12.06;42.55;100363.25;5074549;28;20127;-64
2023/03/16 03:19:58;;;;;;;3.25;1.80;;;;;;;12.00;42.59;100352.97;5074611;28;20101;-64
2023/03/16 03:22:26;;;;;;;2.83;1.48;;;;;;;12.03;42.68;100363.47;5074632;28;20040;-66
2023/03/16 03:24:54;;;;;;;3.03;1.52;;;;;;;12.04;42.62;100367.84;5074289;28;20110;-65
2023/03/16 03:27:23;;;;;;;3.10;1.48;;;;;;;12.02;42.59;100370.63;5074478;28;20054;-65
2023/03/16 03:29:51;;;;;;;3.47;1.67;;;;;;;12.02;42.35;100370.63;5074201;28;20044;-65
2023/03/16 03:32:20;;;;;;;3.75;1.60;;;;;;;12.01;42.61;100371.59;5074229;28;20559;-64
2023/03/16 03:34:50;;;;;;;5.05;2.00;;;;;;;12.00;42.59;100377.91;5074229;28;20044;-65
2023/03/16 03:37:18;;;;;;;3.40;1.73;;;;;;;12.01;42.40;100382.28;5074004;28;20123;-66
2023/03/16 03:39:47;;;;;;;4.13;1.80;;;;;;;11.99;42.53;100386.88;5074168;28;20402;-65
2023/03/16 03:42:15;;;;;;;3.20;1.50;;;;;;;11.98;42.45;100381.63;5074259;28;20059;-65
2023/03/16 03:44:43;;;;;;;3.25;1.70;;;;;;;11.98;42.38;100382.50;5074140;28;20158;-66
2023/03/16 03:47:11;;;;;;;3.42;1.88;;;;;;;11.97;42.54;100386.13;5074085;28;20040;-65
2023/03/16 03:49:39;;;;;;;3.47;1.80;;;;;;;11.96;42.47;100384.38;5073840;28;20106;-66
2023/03/16 03:52:09;;;;;;;3.70;1.58;;;;;;;11.94;42.25;100390.78;5073924;28;20052;-64
2023/03/16 03:54:37;;;;;;;4.32;1.65;;;;;;;11.93;42.23;100395.28;5073070;28;20078;-66
2023/03/16 03:57:06;;;;;;;3.92;1.90;;;;;;;11.94;42.46;100397.00;5074054;28;20059;-65
2023/03/16 03:59:41;;;;;;;4.28;1.65;;;;;;;11.94;42.30;100401.47;5073777;28;20050;-65
2023/03/16 04:02:10;;;;;;;3.60;1.90;;;;;;;11.90;42.36;100395.47;5073817;28;20044;-65
2023/03/16 04:04:39;;;;;;;2.92;1.60;;;;;;;11.92;42.48;100400.72;5073500;28;20074;-65
2023/03/16 04:07:10;;;;;;;3.15;1.60;;;;;;;11.92;42.40;100398.06;5073732;28;20040;-66
2023/03/16 04:09:41;;;;;;;3.72;1.70;;;;;;;11.89;42.41;100403.59;5073525;28;20093;-64
2023/03/16 04:12:11;;;;;;;3.63;1.75;;;;;;;11.88;42.35;100396.53;5073483;28;20045;-64
2023/03/16 04:14:39;;;;;;;3.58;1.73;;;;;;;11.90;42.41;100411.53;5073911;28;20083;-65
2023/03/16 04:17:08;;;;;;;4.40;1.98;;;;;;;11.89;42.34;100404.47;5073481;28;20040;-65
2023/03/16 04:19:37;;;;;;;3.40;1.60;;;;;;;11.83;42.33;100404.84;5073314;28;20052;-64
2023/03/16 04:22:09;;;;;;;3.45;1.67;;;;;;;11.86;42.21;100415.31;5073403;28;20497;-63
2023/03/16 04:24:38;;;;;;;3.05;1.58;;;;;;;11.86;42.30;100412.66;5073461;28;20048;-63
2023/03/16 04:27:06;;;;;;;2.55;1.60;;;;;;;11.83;42.30;100415.53;5073184;28;20078;-66
2023/03/16 04:29:34;;;;;;;3.20;1.67;;;;;;;11.83;42.21;100418.19;5072883;28;20041;-66
2023/03/16 04:32:02;;;;;;;4.32;1.77;;;;;;;11.83;42.25;100426.22;5073075;28;20102;-65
2023/03/16 04:34:32;;;;;;;2.88;1.58;;;;;;;11.82;42.30;100419.16;5073240;28;20540;-64
2023/03/16 04:37:01;;;;;;;5.05;2.00;;;;;;;11.83;42.26;100426.22;5073103;28;20134;-65
2023/03/16 04:39:30;;;;;;;3.35;1.80;;;;;;;11.81;42.35;100414.78;5072802;28;20405;-66
2023/03/16 04:41:59;;;;;;;3.90;1.77;;;;;;;11.83;42.25;100426.22;5072918;28;20094;-65
2023/03/16 04:44:27;;;;;;;3.58;1.90;;;;;;;11.81;42.23;100425.47;5072827;28;20137;-65
2023/03/16 04:46:55;;;;;;;3.80;1.80;;;;;;;11.81;42.40;100438.81;5072922;28;20474;-64
2023/03/16 04:49:23;;;;;;;3.83;1.80;;;;;;;11.78;42.33;100428.31;5072710;28;20563;-63
2023/03/16 04:51:51;;;;;;;3.03;1.58;;;;;;;11.77;41.99;100439.91;5072696;28;20095;-65
2023/03/16 04:54:19;;;;;;;4.05;1.65;;;;;;;11.78;42.09;100444.34;5072538;28;20067;-65
2023/03/16 04:56:49;;;;;;;3.65;1.83;;;;;;;11.77;42.19;100445.25;5072535;28;20186;-65
2023/03/16 04:59:17;;;;;;;3.17;2.08;;;;;;;11.76;42.28;100449.75;5071384;28;20052;-64
2023/03/16 05:01:46;;;;;;;4.10;1.95;;;;;;;11.77;42.13;100458.63;5072482;28;20084;-64
2023/03/16 05:04:15;;;;;;;4.97;1.80;;;;;;;11.75;42.10;100456.06;5072525;28;20048;-64
2023/03/16 05:06:46;;;;;;;5.07;2.20;;;;;;;11.75;42.29;100450.72;5072243;28;20044;-65
2023/03/16 05:09:15;;;;;;;3.28;1.80;;;;;;;11.74;42.34;100465.03;5072265;28;20044;-65
2023/03/16 05:11:43;;;;;;;4.45;2.20;;;;;;;11.74;42.12;100461.50;5072567;28;20055;-65
2023/03/16 05:14:13;;;;;;;4.20;2.25;;;;;;;11.72;42.16;100463.41;5072236;28;20122;-64
2023/03/16 05:16:42;;;;;;;4.80;2.10;;;;;;;11.73;42.04;100475.81;5072165;28;20098;-65
2023/03/16 05:19:11;;;;;;;3.92;1.70;;;;;;;11.72;42.11;100474.97;5072378;28;20083;-65
2023/03/16 05:21:39;;;;;;;2.80;1.65;;;;;;;11.70;42.13;100471.53;5072166;28;20448;-65
2023/03/16 05:24:11;;;;;;;4.05;2.10;;;;;;;11.71;42.31;100477.72;5072105;28;20508;-65
2023/03/16 05:26:39;;;;;;;4.00;2.05;;;;;;;11.70;41.99;100476.88;5072349;28;20044;-65
2023/03/16 05:29:07;;;;;;;3.70;1.90;;;;;;;11.70;41.99;100478.69;5072232;28;20049;-65
2023/03/16 05:31:37;;;;;;;3.83;1.88;;;;;;;11.69;41.99;100482.31;5071782;28;20408;-65
2023/03/16 05:34:05;;;;;;;3.85;1.80;;;;;;;11.69;42.23;100480.50;5071842;28;20086;-66
2023/03/16 05:36:34;;;;;;;5.30;1.88;;;;;;;11.67;42.03;100481.53;5071743;28;20041;-64
2023/03/16 05:39:02;;;;;;;3.28;1.90;;;;;;;11.69;42.25;100487.66;5071275;28;20525;-67
2023/03/16 05:41:33;;;;;;;3.88;1.90;;;;;;;11.68;42.09;100485.94;5071819;28;20453;-64
2023/03/16 05:44:03;;;;;;;4.20;2.03;;;;;;;11.67;42.15;100486.88;5071789;28;20044;-65
2023/03/16 05:46:32;;;;;;;4.68;2.00;;;;;;;11.67;42.32;100492.22;5071718;28;20044;-65
2023/03/16 05:49:02;;;;;;;3.80;1.95;;;;;;;11.67;42.23;100478.84;5071610;28;20048;-66
2023/03/16 05:51:30;;;;;;;3.55;1.80;;;;;;;11.65;41.99;100491.44;5071762;28;20052;-65
2023/03/16 05:53:58;;;;;;;3.92;1.70;;;;;;;11.66;42.21;100488.69;5071711;28;20082;-65
2023/03/16 05:56:28;;;;;;;3.95;2.10;;;;;;;11.66;42.25;100498.50;5071697;28;20439;-66
2023/03/16 05:58:57;;;;;;;3.83;2.10;;;;;;;11.66;42.24;100509.19;5071478;28;20099;-66
2023/03/16 06:01:25;;;;;;;4.13;1.92;;;;;;;11.65;42.34;100507.47;5071469;28;20052;-66
2023/03/16 06:03:53;;;;;;;3.60;1.90;;;;;;;11.63;42.27;100509.41;5069626;28;20438;-65
2023/03/16 06:06:23;;;;;;;4.78;2.17;;;;;;;11.65;42.27;100515.50;5071477;28;20043;-64
2023/03/16 06:08:51;;;;;;;4.78;2.00;;;;;;;11.65;42.20;100518.16;5070279;28;20045;-65
2023/03/16 06:11:20;;;;;;;3.70;1.73;;;;;;;11.63;42.34;100515.59;5071204;28;20102;-64
2023/03/16 06:13:48;;;;;;;3.50;1.88;;;;;;;11.63;42.28;100517.41;5071329;28;20068;-65
2023/03/16 06:16:16;;;;;;;4.20;2.15;;;;;;;11.64;42.20;100516.44;5071327;28;20048;-64
2023/03/16 06:18:47;;;;;;;3.95;1.95;;;;;;;11.65;42.35;100529.72;5074857;28;20508;-66
2023/03/16 06:21:15;;;;;;;3.33;1.88;;;;;;;11.65;42.25;100527.03;5075678;28;20401;-65
2023/03/16 06:23:45;;;;;;;3.30;1.70;;;;;;;11.65;42.18;100534.19;5075567;28;20044;-64
2023/03/16 06:26:13;;;;;;;4.70;2.00;;;;;;;11.64;42.39;100530.66;5075520;28;20051;-64
2023/03/16 06:28:41;;;;;;;3.45;2.00;;;;;;;11.64;42.38;100538.69;5075104;28;20165;-65
2023/03/16 06:31:09;;;;;;;3.55;1.95;;;;;;;11.65;42.38;100545.75;5074980;28;20036;-64
2023/03/16 06:33:38;;;;;;;4.80;2.17;;;;;;;11.65;42.58;100550.22;5075621;28;20167;-65
2023/03/16 06:36:07;;;;;;;3.40;1.90;;;;;;;11.65;42.35;100555.56;5107745;28;20508;-64
2023/03/16 06:38:35;;;;;;;3.75;2.20;;;;;;;11.62;42.29;100551.28;5075138;28;20053;-66
2023/03/16 06:41:07;;;;;;;4.68;2.00;;;;;;;11.65;42.45;100558.25;5074601;28;20052;-66
2023/03/16 06:43:35;;;;;;;4.38;2.00;;;;;;;11.64;42.42;100561.88;5074930;28;20555;-65
2023/03/16 06:46:03;;;;;;;4.45;2.03;;;;;;;11.64;42.42;100572.56;5074886;28;20052;-66
2023/03/16 06:48:32;;;;;;;4.65;2.20;;;;;;;11.63;42.47;100568.19;5074980;28;20064;-64
2023/03/16 06:51:00;;;;;;;3.70;1.90;;;;;;;11.64;42.41;100575.22;5074859;28;20048;-65
2023/03/16 06:53:28;;;;;;;5.32;2.20;;;;;;;11.62;42.32;100566.47;5075022;28;20107;-66
2023/03/16 06:55:56;;;;;;;3.55;2.05;;;;;;;11.65;42.45;100583.16;5074756;28;20454;-66
2023/03/16 06:58:26;;;;;;;3.67;1.92;;;;;;;11.66;42.69;100590.22;5074923;28;20056;-65
2023/03/16 07:00:54;;;;;;;3.45;1.90;;;;;;;11.66;42.50;100587.53;5074533;28;20095;-65
2023/03/16 07:03:22;;;;;;;3.92;1.85;;;;;;;11.65;42.34;100584.97;5074973;28;20049;-64
2023/03/16 07:05:51;;;;;;;4.53;1.98;;;;;;;11.65;42.45;100587.63;5074562;28;20124;-65
2023/03/16 07:08:20;;;;;;;3.45;1.67;;;;;;;11.66;42.51;100589.34;5074498;28;20052;-66
2023/03/16 07:10:50;;;;;;;4.00;2.05;;;;;;;11.66;42.38;100605.38;5074412;28;20079;-64
2023/03/16 07:13:18;;;;;;;5.22;2.17;;;;;;;11.62;42.59;100591.38;5074510;28;20119;-64
2023/03/16 07:15:51;;;;;;;3.47;1.88;;;;;;;11.66;42.53;100597.38;5074127;28;20048;-65
2023/03/16 07:18:19;;;;;;;4.15;2.10;;;;;;;11.64;42.48;100596.63;5074470;28;20203;-65
2023/03/16 07:20:47;;;;;;;4.57;2.03;;;;;;;11.68;42.49;100606.19;5074299;28;20474;-65
2023/03/16 07:23:15;;;;;;;4.53;2.13;;;;;;;11.67;42.40;100612.44;5074249;28;20048;-65
2023/03/16 07:25:44;;;;;;;3.67;1.92;;;;;;;11.68;42.29;100614.19;5074503;28;20074;-65
2023/03/16 07:28:13;;;;;;;3.85;1.98;;;;;;;11.66;42.43;100610.72;5073590;28;20531;-65
2023/03/16 07:30:41;;;;;;;4.78;2.05;;;;;;;11.68;42.48;100619.53;5073651;28;20051;-64
2023/03/16 07:33:33;;;;;;;3.70;1.85;;;;;;;11.67;42.58;100623.13;5074202;28;20048;-64
2023/03/16 07:36:04;;;;;;;4.43;2.00;;;;;;;11.66;42.60;100618.75;5074013;28;20071;-63
2023/03/16 07:38:33;;;;;;;3.70;2.00;;;;;;;11.67;42.47;100624.00;5074331;28;20761;-64
2023/03/16 07:41:01;;;;;;;4.18;2.05;;;;;;;11.64;42.54;100620.66;5073830;28;20056;-65
2023/03/16 07:43:29;;;;;;;5.05;1.80;;;;;;;11.69;42.46;100623.94;5074123;28;20049;-65
2023/03/16 07:45:58;;;;;;;4.20;2.10;;;;;;;11.69;42.57;100621.25;5073880;28;20044;-65
2023/03/16 07:48:27;;;;;;;4.22;2.00;;;;;;;11.68;42.44;100624.91;5073856;28;20494;-65
2023/03/16 07:50:57;;;;;;;4.43;1.80;;;;;;;11.69;42.58;100626.59;5073802;28;20066;-66
2023/03/16 07:53:25;;;;;;;4.13;1.85;;;;;;;11.69;42.48;100621.25;5073976;28;20048;-65
2023/03/16 07:55:53;;;;;;;4.13;2.30;;;;;;;11.70;42.62;100629.19;5073870;28;20132;-65
2023/03/16 07:58:21;;;;;;;6.07;2.42;;;;;;;11.65;42.60;100614.38;5073605;28;20102;-64
2023/03/16 08:00:50;;;;;;;4.75;2.13;;;;;;;11.70;42.65;100634.53;5074202;28;20371;-65
2023/03/16 08:03:18;;;;;;;6.10;2.15;;;;;;;11.72;42.62;100631.75;5073735;28;20044;-65
2023/03/16 08:05:46;;;;;;;4.00;1.98;;;;;;;11.70;42.66;100622.97;5073717;28;20045;-65
2023/03/16 08:08:16;;;;;;;3.70;2.20;;;;;;;11.72;42.56;100631.75;5073753;28;20048;-65
2023/03/16 08:10:47;;;;;;;3.70;2.00;;;;;;;11.72;42.57;100626.41;5073739;28;20126;-65
2023/03/16 08:13:15;;;;;;;4.18;1.67;;;;;;;11.67;42.48;100632.00;5073372;28;20139;-65
2023/03/16 08:15:46;;;;;;;3.80;1.75;;;;;;;11.73;42.46;100644.16;5075512;28;20577;-64
2023/03/16 08:18:14;;;;;;;4.75;2.10;;;;;;;11.73;42.52;100634.34;5079099;28;20044;-64
2023/03/16 08:20:43;;;;;;;4.13;1.80;;;;;;;11.73;42.49;100644.16;5076459;28;20044;-65
2023/03/16 08:23:12;;;;;;;4.25;1.77;;;;;;;11.75;42.58;100648.47;5073847;28;20048;-64
2023/03/16 08:25:41;;;;;;;5.18;1.92;;;;;;;11.75;42.75;100647.59;5073244;28;20056;-64
2023/03/16 08:28:10;;;;;;;4.82;2.10;;;;;;;11.74;42.56;100654.75;5073278;28;20147;-65
2023/03/16 08:30:45;;;;;;;3.47;1.80;;;;;;;11.75;42.62;100647.59;5072992;28;20071;-66
2023/03/16 08:33:16;;;;;;;3.92;1.90;;;;;;;11.75;42.43;100653.81;5073001;28;20075;-67
2023/03/16 08:35:45;;;;;;;4.35;1.83;;;;;;;11.75;42.64;100652.94;5072986;28;20053;-65
2023/03/16 08:38:14;;;;;;;3.60;1.90;;;;;;;11.74;42.70;100645.88;5072979;28;20211;-66
2023/03/16 08:40:47;;;;;;;3.33;2.08;;;;;;;11.78;42.61;100651.94;5072217;28;20080;-64
2023/03/16 08:43:16;;;;;;;3.05;1.75;;;;;;;11.78;42.74;100652.78;5072853;28;20470;-65
2023/03/16 08:45:45;;;;;;;3.33;1.90;;;;;;;11.78;42.74;100650.13;5072758;28;20041;-65
2023/03/16 08:48:13;;;;;;;4.38;1.85;;;;;;;11.79;42.48;100657.19;5072686;28;20188;-64
2023/03/16 08:50:43;;;;;;;3.83;1.73;;;;;;;11.80;42.65;100653.59;5072661;28;20401;-66
2023/03/16 08:53:15;;;;;;;4.25;1.95;;;;;;;11.81;42.79;100657.97;5072401;28;20059;-64
2023/03/16 08:55:45;;;;;;;4.57;1.90;;;;;;;11.80;42.73;100648.25;5072849;28;20127;-65
2023/03/16 08:58:14;;;;;;;4.47;1.80;;;;;;;11.83;42.67;100656.06;5072625;28;20041;-64
2023/03/16 09:00:42;;;;;;;4.53;1.80;;;;;;;11.83;42.69;100656.06;5072545;28;20051;-66
2023/03/16 09:03:14;;;;;;;3.88;1.88;;;;;;;11.85;42.55;100658.66;5072480;28;20101;-65
2023/03/16 09:05:43;;;;;;;3.17;1.73;;;;;;;11.85;42.65;100667.53;5072464;28;20051;-65
2023/03/16 09:08:12;;;;;;;4.53;2.10;;;;;;;11.87;42.59;100662.97;5072149;28;20516;-65
2023/03/16 09:10:41;;;;;;;3.35;1.77;;;;;;;11.88;42.75;100674.53;5072216;28;20071;-66
2023/03/16 09:13:11;;;;;;;3.42;2.00;;;;;;;11.88;42.62;100672.72;5072122;28;20052;-66
2023/03/16 09:15:41;;;;;;;3.28;1.83;;;;;;;11.89;42.73;100671.75;5072141;28;20098;-66
2023/03/16 09:18:10;;;;;;;3.67;1.80;;;;;;;11.87;42.78;100667.44;5072025;28;20135;-65
2023/03/16 09:20:38;;;;;;;3.50;1.90;;;;;;;11.91;42.72;100677.00;5071928;28;20052;-65
2023/03/16 09:23:07;;;;;;;4.65;2.10;;;;;;;11.93;42.73;100689.31;5072384;28;20072;-64
2023/03/16 09:25:35;;;;;;;4.43;2.00;;;;;;;11.93;42.81;100681.31;5071744;28;20072;-66
2023/03/16 09:28:03;;;;;;;4.28;2.10;;;;;;;11.95;42.77;100684.75;5071640;28;20144;-64
2023/03/16 09:30:33;;;;;;;3.65;1.98;;;;;;;11.98;42.83;100681.06;5071997;28;20040;-66
2023/03/16 09:33:01;;;;;;;3.40;1.75;;;;;;;11.98;42.68;100679.25;5071971;28;20101;-66
2023/03/16 09:35:31;;;;;;;4.50;2.20;;;;;;;11.98;42.87;100683.72;5072054;28;20536;-65
2023/03/16 09:38:04;;;;;;;3.35;1.83;;;;;;;12.02;42.77;100679.91;5070503;28;20144;-64
2023/03/16 09:40:34;;;;;;;3.72;2.00;;;;;;;12.01;42.59;100673.69;5071855;28;20401;-65
2023/03/16 09:43:27;;;;;;;2.90;1.67;;;;;;;12.06;42.63;100672.56;5071817;28;20098;-64
2023/03/16 09:46:05;;;;;;;4.10;2.10;;;;;;;12.07;42.61;100677.84;5071906;28;20098;-66
2023/03/16 09:48:37;;;;;;;4.45;2.00;;;;;;;12.09;42.61;100678.59;5071793;28;20508;-66
2023/03/16 09:51:08;;;;;;;4.60;2.00;;;;;;;12.10;42.80;100683.00;5071463;28;20049;-65
2023/03/16 09:53:39;;;;;;;3.65;2.03;;;;;;;12.14;42.74;100694.34;5103211;28;20082;-65
2023/03/16 09:56:11;;;;;;;4.90;2.05;;;;;;;12.14;42.76;100689.00;5071545;28;20051;-65
2023/03/16 09:58:39;;;;;;;4.70;2.05;;;;;;;12.16;42.86;100685.31;5071632;28;20045;-65
2023/03/16 10:01:20;;;;;;;4.15;2.00;;;;;;;12.20;42.76;100689.50;5069856;28;20052;-65
2023/03/16 10:04:01;;;;;;;4.78;1.90;;;;;;;12.20;42.65;100691.31;5071584;28;20127;-65
2023/03/16 10:06:30;;;;;;;5.43;2.35;;;;;;;12.27;42.84;100695.34;5071559;28;20048;-65
2023/03/16 10:09:07;;;;;;;3.83;2.00;;;;;;;12.29;42.88;100693.44;5071736;28;20083;-64
2023/03/16 10:11:40;;;;;;;5.85;2.17;;;;;;;12.32;43.08;100699.47;5071730;28;20537;-65
2023/03/16 10:14:17;;;;;;;4.03;1.98;;;;;;;12.36;42.85;100692.13;5071520;28;20052;-66
2023/03/16 10:16:52;;;;;;;4.72;2.10;;;;;;;12.40;42.70;100699.00;5071510;28;20051;-65
2023/03/16 10:19:27;;;;;;;3.50;1.95;;;;;;;12.43;43.00;100698.81;5071622;28;20390;-66
2023/03/16 10:21:59;;;;;;;4.38;1.92;;;;;;;12.47;42.93;100704.84;5071325;28;20050;-65
2023/03/16 10:24:41;;;;;;;4.40;1.90;;;;;;;12.50;42.79;100699.31;5071202;28;20052;-66
2023/03/16 10:27:19;;;;;;;3.83;1.90;;;;;;;12.55;42.77;100698.09;5071109;28;20054;-65
2023/03/16 10:29:47;;;;;;;4.25;2.25;;;;;;;12.59;42.73;100702.28;5071107;28;20044;-66
2023/03/16 10:32:18;;;;;;;4.07;1.98;;;;;;;12.61;43.01;100699.50;5071392;28;20131;-66
2023/03/16 10:34:53;;;;;;;3.80;1.77;;;;;;;12.69;42.70;100704.38;5071206;28;20048;-67
2023/03/16 10:37:24;;;;;;;3.90;1.80;;;;;;;12.73;42.95;100704.09;5070865;28;20086;-65
2023/03/16 10:39:53;;;;;;;3.58;1.92;;;;;;;12.78;43.11;100696.66;5070752;28;20572;-66
2023/03/16 10:42:25;;;;;;;3.40;2.00;;;;;;;12.81;42.85;100683.06;5071153;28;20045;-65
2023/03/16 10:44:57;;;;;;;3.78;1.67;;;;;;;12.88;42.90;100691.59;5070939;28;20379;-64
2023/03/16 10:47:32;;;;;;;3.83;1.80;;;;;;;12.92;42.96;100685.06;5071658;28;20079;-65
2023/03/16 10:50:13;;;;;;;2.53;1.58;;;;;;;13.00;42.81;100695.31;5071121;28;20044;-66
2023/03/16 10:52:45;;;;;;;3.53;1.98;;;;;;;13.00;42.93;100680.09;5071266;28;20147;-66
2023/03/16 10:55:20;;;;;;;3.85;1.88;;;;;;;13.10;42.62;100693.75;5071283;28;20052;-66
2023/03/16 10:57:52;;;;;;;4.15;1.88;;;;;;;13.09;42.98;100682.19;5071263;28;20494;-66
2023/03/16 11:00:22;;;;;;;4.28;2.00;;;;;;;13.18;42.76;100681.59;5071564;28;20070;-66
2023/03/16 11:02:54;;;;;;;3.15;1.70;;;;;;;13.24;42.68;100688.44;5071860;28;20055;-67
2023/03/16 11:05:29;;;;;;;4.22;2.05;;;;;;;13.31;42.76;100691.56;5075234;28;20051;-66
2023/03/16 11:08:09;;;;;;;3.28;1.80;;;;;;;13.35;42.78;100682.38;5074945;28;20097;-66
2023/03/16 11:10:38;;;;;;;3.85;1.80;;;;;;;13.43;42.66;100685.41;5074650;28;20068;-65
2023/03/16 11:13:23;;;;;;;4.88;2.17;;;;;;;13.50;42.72;100688.53;5074531;28;20066;-65
2023/03/16 11:15:56;;;;;;;3.05;1.48;;;;;;;13.56;42.74;100680.97;5074494;28;20074;-66
2023/03/16 11:18:32;;;;;;;3.95;1.75;;;;;;;13.64;42.60;100678.66;5074484;28;20173;-65
2023/03/16 11:21:06;;;;;;;3.58;1.52;;;;;;;13.68;42.52;100674.78;5074613;28;20139;-67
2023/03/16 11:23:41;;;;;;;3.95;1.95;;;;;;;13.74;42.66;100679.75;5106338;28;20064;-66
2023/03/16 11:26:20;;;;;;;3.17;1.70;;;;;;;13.82;42.39;100668.53;5074418;28;20553;-65
2023/03/16 11:28:53;;;;;;;3.70;1.70;;;;;;;13.88;42.46;100668.09;5074032;28;20051;-65
2023/03/16 11:31:28;;;;;;;3.50;1.80;;;;;;;13.94;42.47;100677.56;5073973;28;20075;-65
2023/03/16 11:33:58;;;;;;;4.25;2.00;;;;;;;14.01;42.30;100676.19;5073534;28;20048;-66
2023/03/16 11:36:38;;;;;;;3.47;1.80;;;;;;;14.04;42.05;100662.56;5074164;28;20051;-67
2023/03/16 11:39:14;;;;;;;3.25;1.80;;;;;;;14.14;42.21;100673.53;5074041;28;20135;-66